Time;durP1;ratioP1;P1;durP2;ratioP2;P2;SDS_P1;SDS_P2;PMS_P1;PMS_P2;Temp;Humidity;BMP_temperature;BMP_pressure;BME280_temperature;BME280_humidity;BME280_pressure;Samples;Min_cycle;Max_cycle;Signal;HPM_P1;HPM_P2
2022/05/20 00:01:26;;;;;;;5.28;2.97;;;19.20;96.30;;;;;;4115095;28;20059;-78
2022/05/20 00:03:29;;;;;;;3.75;3.40;;;19.20;96.50;;;;;;4114024;28;20839;-77
2022/05/20 00:05:31;;;;;;;3.78;3.45;;;19.10;96.60;;;;;;4119456;28;20158;-77
2022/05/20 00:07:33;;;;;;;4.53;3.13;;;19.00;97.00;;;;;;4120848;28;20063;-77
2022/05/20 00:09:36;;;;;;;3.17;2.88;;;19.00;97.10;;;;;;4132485;28;20165;-77
2022/05/20 00:11:38;;;;;;;4.63;3.00;;;19.00;97.30;;;;;;4122751;28;20144;-78
2022/05/20 00:13:39;;;;;;;5.68;3.10;;;19.00;97.60;;;;;;4138288;28;20154;-77
2022/05/20 00:15:41;;;;;;;7.20;3.38;;;19.00;97.50;;;;;;4134371;28;20085;-77
2022/05/20 00:17:43;;;;;;;3.60;3.28;;;18.90;97.80;;;;;;4129708;28;20257;-77
2022/05/20 00:19:45;;;;;;;3.58;3.13;;;18.90;98.00;;;;;;4131367;28;20054;-76
2022/05/20 00:21:47;;;;;;;3.65;3.33;;;18.90;98.20;;;;;;4130085;28;20058;-78
2022/05/20 00:23:48;;;;;;;4.40;3.58;;;18.90;98.40;;;;;;4130077;28;20094;-78
2022/05/20 00:25:50;;;;;;;5.22;3.72;;;18.90;98.40;;;;;;4129425;28;20181;-77
2022/05/20 00:27:52;;;;;;;7.85;3.60;;;18.80;98.40;;;;;;4129235;28;20842;-78
2022/05/20 00:29:57;;;;;;;3.33;3.10;;;18.90;98.60;;;;;;4129289;28;20066;-78
2022/05/20 00:31:59;;;;;;;4.68;3.50;;;18.90;98.60;;;;;;4125826;28;20622;-78
2022/05/20 00:34:00;;;;;;;5.30;4.20;;;18.90;98.60;;;;;;4127983;28;20948;-78
2022/05/20 00:36:02;;;;;;;3.55;3.25;;;18.90;98.60;;;;;;4123864;28;20090;-77
2022/05/20 00:38:04;;;;;;;3.67;2.97;;;18.90;98.50;;;;;;4127621;28;20098;-77
2022/05/20 00:40:09;;;;;;;5.70;3.67;;;19.00;98.30;;;;;;4129020;28;20130;-74
2022/05/20 00:42:16;;;;;;;6.40;4.07;;;19.00;98.00;;;;;;4129555;28;20891;-76
2022/05/20 00:44:18;;;;;;;3.80;3.08;;;19.00;97.90;;;;;;4127977;28;21310;-78
2022/05/20 00:46:23;;;;;;;4.65;3.53;;;19.00;97.70;;;;;;4124225;28;20094;-78
2022/05/20 00:48:26;;;;;;;3.53;3.17;;;19.00;97.70;;;;;;4124392;28;20063;-78
2022/05/20 00:50:28;;;;;;;6.72;3.60;;;19.00;97.50;;;;;;4124527;28;20063;-77
2022/05/20 00:52:32;;;;;;;3.85;3.42;;;19.00;97.40;;;;;;4123364;28;20070;-77
2022/05/20 00:54:40;;;;;;;6.28;3.80;;;19.00;97.30;;;;;;4125162;28;20090;-78
2022/05/20 00:56:46;;;;;;;3.40;3.10;;;19.00;97.30;;;;;;4122930;28;20049;-78
2022/05/20 00:58:51;;;;;;;3.33;3.08;;;19.00;97.80;;;;;;4122222;28;20641;-77
2022/05/20 01:00:55;;;;;;;3.10;2.90;;;19.00;97.30;;;;;;4120725;28;20066;-77
2022/05/20 01:03:01;;;;;;;7.68;3.03;;;19.00;97.10;;;;;;4122686;28;20075;-76
2022/05/20 01:05:10;;;;;;;3.30;3.00;;;19.00;97.10;;;;;;4125280;28;20064;-78
2022/05/20 01:07:14;;;;;;;3.42;2.80;;;19.00;97.10;;;;;;4121274;28;20090;-78
2022/05/20 01:09:16;;;;;;;4.72;3.25;;;19.00;97.10;;;;;;4125350;28;20099;-76
2022/05/20 01:11:18;;;;;;;6.18;3.25;;;19.00;97.20;;;;;;4121807;28;20949;-77
2022/05/20 01:13:23;;;;;;;4.82;3.15;;;19.00;97.30;;;;;;4120522;28;20194;-77
2022/05/20 01:15:25;;;;;;;3.42;3.13;;;18.90;97.30;;;;;;4118643;28;20118;-79
2022/05/20 01:17:28;;;;;;;4.47;2.90;;;18.90;97.30;;;;;;4116581;28;20070;-77
2022/05/20 01:19:44;;;;;;;3.40;3.10;;;18.90;97.40;;;;;;4112266;28;20051;-77
2022/05/20 01:21:45;;;;;;;3.58;3.28;;;18.90;97.60;;;;;;4117968;28;20085;-78
2022/05/20 01:23:47;;;;;;;3.00;2.80;;;18.90;97.70;;;;;;4119121;28;20054;-77
2022/05/20 01:25:52;;;;;;;4.60;3.35;;;18.80;97.60;;;;;;4131256;28;20058;-78
2022/05/20 01:27:54;;;;;;;4.57;3.05;;;18.90;97.60;;;;;;4127473;28;20058;-77
2022/05/20 01:29:56;;;;;;;4.25;2.92;;;18.80;97.60;;;;;;4131147;28;20089;-78
2022/05/20 01:31:57;;;;;;;4.20;3.38;;;18.80;97.60;;;;;;4123844;28;20055;-76
2022/05/20 01:33:59;;;;;;;10.73;3.53;;;18.80;97.70;;;;;;4126923;28;20099;-77
2022/05/20 01:36:06;;;;;;;5.60;3.70;;;18.80;97.70;;;;;;4126490;28;20880;-78
2022/05/20 01:38:10;;;;;;;6.68;3.85;;;18.80;97.60;;;;;;4126825;28;20058;-77
2022/05/20 01:40:12;;;;;;;8.60;3.65;;;18.80;97.70;;;;;;4126353;28;20094;-77
2022/05/20 01:42:28;;;;;;;3.78;3.47;;;18.80;97.80;;;;;;4126136;28;20059;-77
2022/05/20 01:44:37;;;;;;;5.13;3.17;;;18.80;97.80;;;;;;4139665;28;20125;-77
2022/05/20 01:46:44;;;;;;;5.65;4.05;;;18.80;97.90;;;;;;4124159;28;20801;-75
2022/05/20 01:48:59;;;;;;;9.10;4.25;;;18.80;97.80;;;;;;4124327;28;20916;-77
2022/05/20 01:51:08;;;;;;;3.58;3.30;;;18.80;97.80;;;;;;4124951;28;20113;-78
2022/05/20 01:53:41;;;;;;;4.03;3.40;;;18.80;97.80;;;;;;4125055;28;20063;-75
2022/05/20 01:55:56;;;;;;;3.85;3.38;;;18.80;98.00;;;;;;4121644;28;20051;-77
2022/05/20 01:58:22;;;;;;;3.35;3.05;;;18.80;98.30;;;;;;4123981;28;20070;-76
2022/05/20 02:00:27;;;;;;;7.18;3.60;;;18.80;97.90;;;;;;4121818;28;20090;-77
2022/05/20 02:02:35;;;;;;;4.38;3.72;;;18.80;97.90;;;;;;4120467;28;20066;-77
2022/05/20 02:04:49;;;;;;;4.15;3.45;;;18.80;98.00;;;;;;4120786;28;20058;-75
2022/05/20 02:06:57;;;;;;;4.93;3.75;;;18.80;98.00;;;;;;4119963;28;20074;-77
2022/05/20 02:09:07;;;;;;;4.63;3.83;;;18.80;97.90;;;;;;4116983;28;20067;-77
2022/05/20 02:11:20;;;;;;;5.05;3.05;;;18.80;97.90;;;;;;4121296;28;20051;-77
2022/05/20 02:13:27;;;;;;;8.68;4.30;;;18.80;97.90;;;;;;4118448;28;20057;-77
2022/05/20 02:15:38;;;;;;;5.40;3.78;;;18.80;98.30;;;;;;4116461;28;20081;-75
2022/05/20 02:17:43;;;;;;;8.15;4.55;;;18.80;97.90;;;;;;4119252;28;20058;-76
2022/05/20 02:19:59;;;;;;;5.32;3.67;;;18.80;97.90;;;;;;4117244;28;20137;-75
2022/05/20 02:22:04;;;;;;;9.50;4.35;;;18.90;97.70;;;;;;4116968;28;20098;-76
2022/05/20 02:24:10;;;;;;;3.90;3.60;;;18.90;97.50;;;;;;4117612;28;20165;-74
2022/05/20 02:26:15;;;;;;;5.90;4.20;;;18.90;97.40;;;;;;4116752;28;20201;-76
2022/05/20 02:28:25;;;;;;;6.13;3.65;;;18.90;97.30;;;;;;4115490;28;20698;-76
2022/05/20 02:30:32;;;;;;;4.55;3.42;;;18.90;97.30;;;;;;4114984;28;20889;-76
2022/05/20 02:32:49;;;;;;;7.63;3.83;;;18.90;97.20;;;;;;4115359;28;20059;-76
2022/05/20 02:34:52;;;;;;;4.63;3.85;;;19.00;97.00;;;;;;4115591;28;20055;-75
2022/05/20 02:36:54;;;;;;;4.85;3.80;;;19.00;96.90;;;;;;4111858;28;20059;-75
2022/05/20 02:38:56;;;;;;;4.65;4.03;;;19.00;96.80;;;;;;4114649;28;20109;-76
2022/05/20 02:40:58;;;;;;;6.47;4.05;;;19.00;96.80;;;;;;4127477;28;20082;-76
2022/05/20 02:42:59;;;;;;;4.00;3.70;;;19.00;96.80;;;;;;4127033;28;20313;-76
2022/05/20 02:45:02;;;;;;;5.75;4.55;;;19.00;96.80;;;;;;4127408;28;20142;-76
2022/05/20 02:47:04;;;;;;;5.25;4.25;;;18.90;96.80;;;;;;4127662;28;20069;-76
2022/05/20 02:49:06;;;;;;;7.82;3.85;;;18.90;96.70;;;;;;4124933;28;20107;-76
2022/05/20 02:51:08;;;;;;;4.65;4.00;;;18.90;96.70;;;;;;4124460;28;20058;-76
2022/05/20 02:53:10;;;;;;;3.83;3.53;;;18.90;97.00;;;;;;4123720;28;20210;-76
2022/05/20 02:55:12;;;;;;;5.93;3.80;;;18.90;96.70;;;;;;4127202;28;20066;-75
2022/05/20 02:57:14;;;;;;;4.72;3.65;;;18.90;96.60;;;;;;4123775;28;20066;-75
2022/05/20 03:04:09;;;;;;;4.22;3.85;;;18.80;97.40;;;;;;4121109;28;20063;-74
2022/05/20 03:06:11;;;;;;;4.88;3.75;;;18.70;97.70;;;;;;4122498;28;20058;-74
2022/05/20 03:08:13;;;;;;;5.00;3.83;;;18.60;97.90;;;;;;4124790;28;20788;-75
2022/05/20 03:10:15;;;;;;;3.65;3.28;;;18.60;98.10;;;;;;4122406;28;20145;-75
2022/05/20 03:12:17;;;;;;;7.53;4.28;;;18.60;98.20;;;;;;4121464;28;20063;-75
2022/05/20 03:14:21;;;;;;;5.22;3.72;;;18.60;98.30;;;;;;4122609;28;20055;-75
2022/05/20 03:16:23;;;;;;;4.60;3.95;;;18.50;98.40;;;;;;4122395;28;20090;-75
2022/05/20 03:18:25;;;;;;;4.07;3.75;;;18.50;98.30;;;;;;4119992;28;20158;-75
2022/05/20 03:20:27;;;;;;;4.53;3.40;;;18.60;98.30;;;;;;4118414;28;20146;-76
2022/05/20 03:22:28;;;;;;;7.43;3.75;;;18.60;98.20;;;;;;4107663;28;20063;-76
2022/05/20 03:24:31;;;;;;;3.65;3.35;;;18.60;98.10;;;;;;4119470;28;20101;-76
2022/05/20 03:26:33;;;;;;;5.30;3.78;;;18.70;97.90;;;;;;4117425;28;20094;-75
2022/05/20 03:28:35;;;;;;;4.95;4.18;;;18.70;97.50;;;;;;4117928;28;20066;-75
2022/05/20 03:30:37;;;;;;;5.97;3.42;;;18.80;97.10;;;;;;4116516;28;20066;-75
2022/05/20 03:32:39;;;;;;;4.32;3.33;;;18.80;96.70;;;;;;4118028;28;20063;-75
2022/05/20 03:34:41;;;;;;;3.65;3.35;;;18.90;96.20;;;;;;4117381;28;20059;-76
2022/05/20 03:36:45;;;;;;;3.90;3.60;;;18.90;95.90;;;;;;4117838;28;20065;-75
2022/05/20 03:38:47;;;;;;;3.30;3.10;;;18.90;95.30;;;;;;4117781;28;20158;-75
2022/05/20 03:40:49;;;;;;;5.32;3.20;;;19.00;95.00;;;;;;4113803;28;20174;-76
2022/05/20 03:42:51;;;;;;;3.78;2.92;;;19.00;94.50;;;;;;4115395;28;20099;-75
2022/05/20 03:44:53;;;;;;;3.30;3.00;;;19.10;94.00;;;;;;4119645;28;20063;-75
2022/05/20 03:46:56;;;;;;;2.92;2.55;;;19.10;93.30;;;;;;4119074;28;20227;-76
2022/05/20 03:49:01;;;;;;;2.95;2.60;;;19.20;92.80;;;;;;4118849;28;20832;-76
2022/05/20 03:51:13;;;;;;;3.30;2.92;;;19.20;92.50;;;;;;4115916;28;20063;-75
2022/05/20 03:53:15;;;;;;;4.32;2.80;;;19.30;92.20;;;;;;4117769;28;20054;-75
2022/05/20 03:55:17;;;;;;;2.80;2.50;;;19.30;92.10;;;;;;4117354;28;20867;-75
2022/05/20 03:57:19;;;;;;;3.47;2.55;;;19.30;91.80;;;;;;4122522;28;20705;-75
2022/05/20 03:59:21;;;;;;;2.83;2.60;;;19.30;91.50;;;;;;4120115;28;20063;-74
2022/05/20 04:03:45;;;;;;;;;;;19.40;91.10;;;;;;4122163;28;20062;-75
2022/05/20 04:05:46;;;;;;;2.50;2.30;;;19.40;90.80;;;;;;4119960;28;20356;-77
2022/05/20 04:07:51;;;;;;;3.55;2.20;;;19.40;90.70;;;;;;4118751;28;20178;-75
2022/05/20 04:09:53;;;;;;;3.38;1.98;;;19.40;90.50;;;;;;4120420;28;20059;-76
2022/05/20 04:11:58;;;;;;;2.38;1.95;;;19.40;90.40;;;;;;4118694;28;20905;-76
2022/05/20 04:14:01;;;;;;;4.10;2.83;;;19.40;90.40;;;;;;4120362;28;20059;-77
2022/05/20 04:16:04;;;;;;;3.15;2.33;;;19.40;90.40;;;;;;4117917;28;20099;-77
2022/05/20 04:18:05;;;;;;;3.28;2.63;;;19.40;90.30;;;;;;4120774;28;20059;-77
2022/05/20 04:20:08;;;;;;;2.75;2.55;;;19.40;90.40;;;;;;4119020;28;20102;-77
2022/05/20 04:22:12;;;;;;;3.85;2.20;;;19.40;90.40;;;;;;4115499;28;20059;-76
2022/05/20 04:24:14;;;;;;;2.58;2.30;;;19.30;90.30;;;;;;4117161;28;20059;-75
2022/05/20 04:26:16;;;;;;;2.53;2.33;;;19.30;90.50;;;;;;4122748;28;20094;-76
2022/05/20 04:28:18;;;;;;;2.70;2.50;;;19.30;90.40;;;;;;4123670;28;20081;-77
2022/05/20 04:30:22;;;;;;;3.65;2.17;;;19.30;90.40;;;;;;4123336;28;20144;-77
2022/05/20 04:32:24;;;;;;;4.38;2.75;;;19.30;90.30;;;;;;4121194;28;20102;-76
2022/05/20 04:34:26;;;;;;;2.85;1.98;;;19.30;90.40;;;;;;4122901;28;20059;-75
2022/05/20 04:36:28;;;;;;;2.97;2.58;;;19.30;90.40;;;;;;4122635;28;20896;-76
2022/05/20 04:38:29;;;;;;;2.97;2.78;;;19.30;90.30;;;;;;4118587;28;20056;-75
2022/05/20 04:40:31;;;;;;;2.80;2.13;;;19.30;90.30;;;;;;4116164;28;20098;-77
2022/05/20 04:47:21;;;;;;;;;;;19.30;90.30;;;;;;4115980;28;20202;-76
2022/05/20 04:49:30;;;;;;;3.38;2.63;;;19.40;90.00;;;;;;4115181;28;19985;-76
2022/05/20 04:51:33;;;;;;;5.55;2.88;;;19.40;90.00;;;;;;4113513;28;20567;-77
2022/05/20 04:55:55;;;;;;;5.00;2.33;;;19.50;89.50;;;;;;4116170;28;20043;-74
2022/05/20 04:57:58;;;;;;;3.65;2.60;;;19.60;89.30;;;;;;4114572;28;20697;-75
2022/05/20 05:00:18;;;;;;;4.50;1.88;;;19.60;89.20;;;;;;4114050;28;20070;-76
2022/05/20 05:02:21;;;;;;;2.78;2.03;;;19.60;88.60;;;;;;4110077;28;20070;-76
2022/05/20 05:04:23;;;;;;;4.07;2.33;;;19.70;88.00;;;;;;4125116;28;20058;-75
2022/05/20 05:06:25;;;;;;;2.25;1.98;;;19.80;87.70;;;;;;4119978;28;20198;-76
2022/05/20 05:08:26;;;;;;;2.13;2.03;;;19.90;87.40;;;;;;4116749;28;20226;-76
2022/05/20 05:10:30;;;;;;;3.92;2.13;;;19.90;87.20;;;;;;4116410;28;20798;-76
2022/05/20 05:12:33;;;;;;;5.15;2.42;;;19.90;87.10;;;;;;4119886;28;20866;-76
2022/05/20 05:14:37;;;;;;;2.75;1.90;;;20.00;86.80;;;;;;4130006;28;20061;-76
2022/05/20 05:16:38;;;;;;;3.17;2.35;;;20.00;86.80;;;;;;4121354;28;20059;-75
2022/05/20 05:18:40;;;;;;;5.03;2.40;;;20.10;86.70;;;;;;4126862;28;20821;-76
2022/05/20 05:20:46;;;;;;;4.22;2.28;;;20.10;86.60;;;;;;4125425;28;20894;-76
2022/05/20 05:22:50;;;;;;;3.60;2.53;;;20.10;86.30;;;;;;4127906;28;20059;-76
2022/05/20 05:24:51;;;;;;;3.20;2.22;;;20.10;85.80;;;;;;4124531;28;21255;-76
2022/05/20 05:26:53;;;;;;;2.42;2.22;;;20.20;86.00;;;;;;4123217;28;20051;-76
2022/05/20 05:28:55;;;;;;;2.00;1.90;;;20.20;85.60;;;;;;4124031;28;20060;-76
2022/05/20 05:30:57;;;;;;;3.22;2.20;;;20.30;85.40;;;;;;4124881;28;20058;-75
2022/05/20 05:32:59;;;;;;;6.53;2.63;;;20.30;85.40;;;;;;4126603;28;20059;-76
2022/05/20 05:35:01;;;;;;;2.20;2.03;;;20.30;85.10;;;;;;4126441;28;20904;-76
2022/05/20 05:37:03;;;;;;;2.47;2.08;;;20.30;85.00;;;;;;4124642;28;20204;-75
2022/05/20 05:39:05;;;;;;;3.15;2.75;;;20.40;84.90;;;;;;4124573;28;20059;-75
2022/05/20 05:41:07;;;;;;;3.00;2.35;;;20.40;84.60;;;;;;4122211;28;20886;-75
2022/05/20 05:43:08;;;;;;;3.35;2.00;;;20.50;84.40;;;;;;4125125;28;20198;-76
2022/05/20 05:45:13;;;;;;;3.33;2.20;;;20.50;84.30;;;;;;4123600;28;20066;-76
2022/05/20 05:47:15;;;;;;;2.60;2.28;;;20.60;84.50;;;;;;4121323;28;20093;-74
2022/05/20 05:49:16;;;;;;;2.20;2.10;;;20.70;83.80;;;;;;4122588;28;20877;-73
2022/05/20 05:51:18;;;;;;;5.15;2.33;;;20.80;83.80;;;;;;4120180;28;20081;-74
2022/05/20 05:53:22;;;;;;;2.80;2.33;;;20.90;83.80;;;;;;4121624;28;20065;-75
2022/05/20 05:55:24;;;;;;;6.53;2.80;;;21.00;83.40;;;;;;4122368;28;21039;-75
2022/05/20 05:57:25;;;;;;;2.95;2.40;;;21.10;83.20;;;;;;4120366;28;20070;-76
2022/05/20 05:59:28;;;;;;;3.75;2.35;;;21.10;83.40;;;;;;4121972;28;20062;-76
2022/05/20 06:01:30;;;;;;;3.55;2.60;;;21.10;83.20;;;;;;4117923;28;20055;-77
2022/05/20 06:03:37;;;;;;;5.93;2.88;;;21.10;83.80;;;;;;4120034;28;20107;-75
2022/05/20 06:05:38;;;;;;;2.78;2.10;;;21.10;82.80;;;;;;4119422;28;20063;-75
2022/05/20 06:07:40;;;;;;;2.17;1.98;;;21.20;82.90;;;;;;4118323;28;20822;-75
2022/05/20 06:09:42;;;;;;;3.33;2.30;;;21.20;83.00;;;;;;4118985;28;20059;-75
2022/05/20 06:11:46;;;;;;;3.95;2.60;;;21.40;82.50;;;;;;4117799;28;20117;-74
2022/05/20 06:13:49;;;;;;;2.40;2.25;;;21.40;82.30;;;;;;4117354;28;20059;-74
2022/05/20 06:15:52;;;;;;;3.83;2.28;;;21.60;81.50;;;;;;4114726;28;20869;-75
2022/05/20 06:17:55;;;;;;;4.50;2.25;;;21.70;81.10;;;;;;4117187;28;20063;-75
2022/05/20 06:19:57;;;;;;;2.45;1.80;;;21.80;81.10;;;;;;4116673;28;20063;-76
2022/05/20 06:21:58;;;;;;;2.50;2.30;;;21.90;80.40;;;;;;4110619;28;20870;-75
2022/05/20 06:24:01;;;;;;;2.60;2.40;;;22.00;80.50;;;;;;4110555;28;20055;-75
2022/05/20 06:26:03;;;;;;;5.72;2.40;;;22.20;79.10;;;;;;4108310;28;20067;-75
2022/05/20 06:28:20;;;;;;;3.30;2.30;;;22.30;78.60;;;;;;4115608;28;20070;-77
2022/05/20 06:30:22;;;;;;;2.53;2.17;;;22.30;76.90;;;;;;4129676;28;20059;-78
2022/05/20 06:32:24;;;;;;;2.60;2.08;;;22.30;76.30;;;;;;4123636;28;20069;-77
2022/05/20 06:34:25;;;;;;;2.72;2.47;;;22.40;77.60;;;;;;4117692;28;20059;-76
2022/05/20 06:41:09;;;;;;;6.40;2.38;;;22.60;76.20;;;;;;4126998;28;20051;-78
2022/05/20 06:43:19;;;;;;;2.65;2.35;;;22.60;75.80;;;;;;4128471;28;20097;-77
2022/05/20 06:45:21;;;;;;;2.10;2.00;;;22.80;76.00;;;;;;4128987;28;20898;-77
2022/05/20 06:47:23;;;;;;;2.05;1.85;;;22.90;75.50;;;;;;4133777;28;20849;-79
2022/05/20 06:49:24;;;;;;;3.03;2.75;;;23.00;75.00;;;;;;4124376;28;20891;-76
2022/05/20 06:51:29;;;;;;;2.53;2.13;;;23.10;74.10;;;;;;4115715;28;20057;-72
2022/05/20 06:53:31;;;;;;;4.00;2.67;;;23.10;74.10;;;;;;4119971;28;20062;-73
2022/05/20 06:55:33;;;;;;;1.85;1.70;;;23.10;74.50;;;;;;4121191;28;20098;-73
2022/05/20 06:57:39;;;;;;;7.50;2.20;;;23.00;75.20;;;;;;4119690;28;20059;-73
2022/05/20 06:59:41;;;;;;;3.13;2.03;;;23.10;73.70;;;;;;4117972;28;20059;-73
2022/05/20 07:01:43;;;;;;;3.80;2.10;;;23.30;73.90;;;;;;4119593;28;20094;-73
2022/05/20 07:04:06;;;;;;;6.22;1.85;;;23.30;74.00;;;;;;4120385;28;20063;-74
2022/05/20 07:06:08;;;;;;;2.60;2.40;;;23.30;72.40;;;;;;4123065;28;20059;-73
2022/05/20 07:08:10;;;;;;;2.92;2.28;;;23.40;72.10;;;;;;4120169;28;20063;-78
2022/05/20 07:10:15;;;;;;;2.55;1.85;;;23.40;73.10;;;;;;4119759;28;20756;-74
2022/05/20 07:12:17;;;;;;;8.38;2.30;;;23.60;71.50;;;;;;4120618;28;20055;-74
2022/05/20 07:14:18;;;;;;;4.88;2.35;;;23.70;71.30;;;;;;4118876;28;20212;-74
2022/05/20 07:16:21;;;;;;;2.50;1.88;;;23.80;71.60;;;;;;4120687;28;20066;-75
2022/05/20 07:18:27;;;;;;;3.72;2.40;;;23.80;71.00;;;;;;4120344;28;20137;-74
2022/05/20 07:20:29;;;;;;;2.63;2.40;;;23.90;71.10;;;;;;4121303;28;20061;-73
2022/05/20 07:22:31;;;;;;;3.08;2.45;;;24.00;69.20;;;;;;4115717;28;20062;-73
2022/05/20 07:24:33;;;;;;;4.00;2.15;;;24.10;69.60;;;;;;4110489;28;20206;-74
2022/05/20 07:26:35;;;;;;;2.53;2.25;;;24.00;68.50;;;;;;4120177;28;20840;-74
2022/05/20 07:28:37;;;;;;;2.00;1.80;;;24.00;68.70;;;;;;4117750;28;20059;-74
2022/05/20 07:30:39;;;;;;;2.30;1.75;;;24.00;68.40;;;;;;4117955;28;20062;-74
2022/05/20 07:32:44;;;;;;;4.85;2.50;;;24.00;67.90;;;;;;4112624;28;20055;-74
2022/05/20 07:34:46;;;;;;;2.17;2.00;;;24.10;69.20;;;;;;4118424;28;20078;-74
2022/05/20 07:36:47;;;;;;;2.78;2.40;;;24.20;68.80;;;;;;4117287;28;20063;-75
2022/05/20 07:38:50;;;;;;;3.60;1.98;;;24.20;68.40;;;;;;4117537;28;20059;-75
2022/05/20 07:40:55;;;;;;;3.25;2.28;;;24.30;68.00;;;;;;4116418;28;20149;-72
2022/05/20 07:42:56;;;;;;;2.22;1.88;;;24.40;67.80;;;;;;4116698;28;20696;-73
2022/05/20 07:45:01;;;;;;;2.50;1.92;;;24.50;67.40;;;;;;4123754;28;20137;-73
2022/05/20 07:47:04;;;;;;;3.08;2.17;;;24.60;68.00;;;;;;4129677;28;20065;-73
2022/05/20 07:49:06;;;;;;;3.38;2.60;;;24.60;66.90;;;;;;4126814;28;20113;-72
2022/05/20 07:51:12;;;;;;;9.45;2.40;;;24.70;68.00;;;;;;4127079;28;20065;-73
2022/05/20 07:53:19;;;;;;;3.35;2.28;;;24.70;67.90;;;;;;4129641;28;20067;-73
2022/05/20 07:55:21;;;;;;;2.25;2.03;;;24.80;68.00;;;;;;4127344;28;20200;-74
2022/05/20 07:57:23;;;;;;;2.10;1.90;;;24.80;67.20;;;;;;4125999;28;20077;-73
2022/05/20 07:59:30;;;;;;;2.67;2.10;;;24.80;66.80;;;;;;4127068;28;20785;-73
2022/05/20 08:01:34;;;;;;;3.28;2.10;;;24.90;65.00;;;;;;4123055;28;20063;-72
2022/05/20 08:06:08;;;;;;;;;;;25.10;65.90;;;;;;4129656;28;20065;-75
2022/05/20 08:08:10;;;;;;;3.80;2.22;;;25.20;65.30;;;;;;4127498;28;20062;-74
2022/05/20 08:10:20;;;;;;;2.58;1.98;;;25.20;65.30;;;;;;4126615;28;20769;-74
2022/05/20 08:12:22;;;;;;;2.05;1.75;;;25.20;66.10;;;;;;4125041;28;20122;-74
2022/05/20 08:14:26;;;;;;;3.17;2.22;;;25.20;66.20;;;;;;4123971;28;20679;-74
2022/05/20 08:16:27;;;;;;;3.38;2.72;;;25.30;66.40;;;;;;4125835;28;20066;-74
2022/05/20 08:18:30;;;;;;;2.60;2.40;;;25.40;64.80;;;;;;4125034;28;20059;-74
2022/05/20 08:20:32;;;;;;;2.53;2.30;;;25.50;65.30;;;;;;4124955;28;20055;-74
2022/05/20 08:22:33;;;;;;;2.90;2.35;;;25.50;64.40;;;;;;4123869;28;20874;-73
2022/05/20 08:24:35;;;;;;;3.05;2.58;;;25.50;65.00;;;;;;4123199;28;20065;-74
2022/05/20 08:26:37;;;;;;;3.25;2.90;;;25.60;64.30;;;;;;4123004;28;20062;-74
2022/05/20 08:28:39;;;;;;;3.03;2.25;;;25.70;64.70;;;;;;4119517;28;20063;-73
2022/05/20 08:30:40;;;;;;;4.13;2.20;;;25.70;63.10;;;;;;4126759;28;20063;-74
2022/05/20 08:32:42;;;;;;;3.67;2.63;;;25.70;63.10;;;;;;4123411;28;20063;-74
2022/05/20 08:34:46;;;;;;;4.85;2.58;;;25.70;63.90;;;;;;4120608;28;20117;-74
2022/05/20 08:36:47;;;;;;;6.47;2.55;;;25.60;64.00;;;;;;4124538;28;20077;-74
2022/05/20 08:38:49;;;;;;;2.95;2.30;;;25.70;65.80;;;;;;4125466;28;20058;-74
2022/05/20 08:40:51;;;;;;;3.25;2.30;;;25.80;65.00;;;;;;4125146;28;20049;-73
2022/05/20 08:42:55;;;;;;;3.28;2.20;;;25.90;63.50;;;;;;4126753;28;20059;-74
2022/05/20 08:44:58;;;;;;;2.72;2.53;;;25.90;62.00;;;;;;4124507;28;20171;-73
2022/05/20 08:47:28;;;;;;;5.57;2.20;;;25.90;62.20;;;;;;4126090;28;20953;-74
2022/05/20 08:49:30;;;;;;;4.15;2.03;;;26.00;62.60;;;;;;4099728;28;20059;-75
2022/05/20 08:51:33;;;;;;;4.05;2.80;;;26.20;62.30;;;;;;4119466;28;20061;-73
2022/05/20 08:53:46;;;;;;;2.65;2.45;;;26.30;60.90;;;;;;4123444;28;20081;-74
2022/05/20 08:55:48;;;;;;;5.88;2.22;;;26.40;61.50;;;;;;4126375;28;20770;-73
2022/05/20 08:57:56;;;;;;;3.17;2.88;;;26.40;60.50;;;;;;4125387;28;20877;-73
2022/05/20 08:59:58;;;;;;;4.63;2.33;;;26.50;59.10;;;;;;4120901;28;20069;-72
2022/05/20 09:02:00;;;;;;;2.70;2.50;;;26.60;59.10;;;;;;4130986;28;20069;-71
2022/05/20 09:04:05;;;;;;;3.67;2.55;;;26.70;58.20;;;;;;4127330;28;20078;-73
2022/05/20 09:06:12;;;;;;;5.20;2.28;;;26.80;58.10;;;;;;4130394;28;20846;-78
2022/05/20 09:08:25;;;;;;;2.97;2.35;;;26.80;58.60;;;;;;4128936;28;20882;-74
2022/05/20 09:10:44;;;;;;;3.88;2.38;;;26.80;58.00;;;;;;4124488;28;20869;-71
2022/05/20 09:12:47;;;;;;;4.57;2.75;;;27.00;58.00;;;;;;4121653;28;20219;-72
2022/05/20 09:17:15;;;;;;;2.40;2.20;;;26.90;59.40;;;;;;4124206;28;20065;-73
2022/05/20 09:19:25;;;;;;;3.28;2.63;;;27.00;58.40;;;;;;4120694;28;20097;-72
2022/05/20 09:21:38;;;;;;;5.05;2.13;;;27.00;58.00;;;;;;4124168;28;20162;-73
2022/05/20 09:23:53;;;;;;;3.30;2.58;;;26.90;59.00;;;;;;4124523;28;20137;-72
2022/05/20 09:26:05;;;;;;;3.17;2.30;;;26.80;56.20;;;;;;4123285;28;20059;-72
2022/05/20 09:28:29;;;;;;;6.28;2.35;;;26.60;56.70;;;;;;4122188;28;20102;-72
2022/05/20 09:30:38;;;;;;;5.15;2.28;;;26.80;56.90;;;;;;4122079;28;20169;-75
2022/05/20 09:33:15;;;;;;;2.30;2.03;;;26.80;56.60;;;;;;4122349;28;20871;-71
2022/05/20 09:35:17;;;;;;;2.60;2.40;;;26.90;56.50;;;;;;4123320;28;20069;-73
2022/05/20 09:37:20;;;;;;;3.58;2.78;;;27.00;56.90;;;;;;4125529;28;20062;-72
2022/05/20 09:39:46;;;;;;;6.57;2.80;;;27.00;56.40;;;;;;4126560;28;20059;-73
2022/05/20 09:41:56;;;;;;;3.63;2.60;;;27.20;56.00;;;;;;4122474;28;20066;-73
2022/05/20 09:44:03;;;;;;;3.88;2.45;;;27.20;56.70;;;;;;4121751;28;20070;-74
2022/05/20 09:46:05;;;;;;;2.80;2.60;;;27.10;57.70;;;;;;4124648;28;20058;-73
2022/05/20 09:48:08;;;;;;;3.10;2.15;;;27.10;56.20;;;;;;4126581;28;20059;-73
2022/05/20 09:50:33;;;;;;;3.53;2.90;;;27.00;56.90;;;;;;4121318;28;20059;-73
2022/05/20 09:52:40;;;;;;;3.25;2.35;;;27.00;57.30;;;;;;4121267;28;20762;-74
2022/05/20 09:54:48;;;;;;;2.95;2.65;;;27.00;56.70;;;;;;4118333;28;20105;-73
2022/05/20 09:57:23;;;;;;;5.47;2.45;;;27.10;57.50;;;;;;4126507;28;20647;-73
2022/05/20 09:59:49;;;;;;;3.13;2.40;;;27.20;57.00;;;;;;4123511;28;20063;-73
2022/05/20 10:02:15;;;;;;;4.43;2.00;;;27.30;56.80;;;;;;4122592;28;20055;-73
2022/05/20 10:04:24;;;;;;;3.92;2.53;;;27.40;58.10;;;;;;4118903;28;20816;-73
2022/05/20 10:06:35;;;;;;;2.78;2.35;;;27.40;58.30;;;;;;4111448;28;20153;-74
2022/05/20 10:09:11;;;;;;;5.95;2.92;;;27.40;56.70;;;;;;4111085;28;20058;-74
2022/05/20 10:11:22;;;;;;;1.98;1.77;;;27.50;56.50;;;;;;4114775;28;20154;-73
2022/05/20 10:13:35;;;;;;;4.55;2.53;;;27.60;56.00;;;;;;4115358;28;20822;-73
2022/05/20 10:15:46;;;;;;;4.38;2.30;;;27.50;55.80;;;;;;4111850;28;20158;-73
2022/05/20 10:18:25;;;;;;;6.78;2.22;;;27.60;56.70;;;;;;4128572;28;20050;-71
2022/05/20 10:20:39;;;;;;;2.75;2.20;;;27.50;53.80;;;;;;4126798;28;20058;-71
2022/05/20 10:22:57;;;;;;;4.47;2.33;;;27.60;55.10;;;;;;4127343;28;20893;-73
2022/05/20 10:25:07;;;;;;;4.22;2.22;;;27.70;51.30;;;;;;4121291;28;20059;-73
2022/05/20 10:27:44;;;;;;;4.30;2.70;;;27.70;49.90;;;;;;4121862;28;20101;-73
2022/05/20 10:32:36;;;;;;;4.47;2.50;;;27.80;49.80;;;;;;4125826;28;20062;-73
2022/05/20 10:34:39;;;;;;;7.28;2.45;;;27.90;50.40;;;;;;4124509;28;20190;-73
2022/05/20 10:36:54;;;;;;;5.68;2.22;;;27.90;48.90;;;;;;4127161;28;20158;-74
2022/05/20 10:39:21;;;;;;;3.50;2.17;;;27.90;50.10;;;;;;4114118;28;20055;-73
2022/05/20 10:42:07;;;;;;;4.85;2.13;;;28.10;49.40;;;;;;4120796;28;20712;-73
2022/05/20 10:49:43;;;;;;;2.95;2.08;;;28.20;48.70;;;;;;4090737;28;20105;-73
2022/05/20 10:51:48;;;;;;;6.35;2.53;;;28.30;49.50;;;;;;4121174;28;20065;-73
2022/05/20 10:53:55;;;;;;;3.92;2.10;;;28.30;49.50;;;;;;4126474;28;20065;-73
2022/05/20 10:56:24;;;;;;;2.55;1.73;;;28.40;49.30;;;;;;4121135;28;20801;-73
2022/05/20 10:58:34;;;;;;;5.97;2.40;;;28.30;48.50;;;;;;4124621;28;20102;-72
2022/05/20 11:00:50;;;;;;;5.22;2.67;;;28.40;48.70;;;;;;4121651;28;20074;-76
2022/05/20 11:03:06;;;;;;;3.85;2.17;;;28.40;47.80;;;;;;4125066;28;20062;-75
2022/05/20 11:05:59;;;;;;;2.60;2.00;;;28.40;48.30;;;;;;4123067;28;20095;-76
2022/05/20 11:08:25;;;;;;;2.58;1.95;;;28.40;48.60;;;;;;4123716;28;20059;-75
2022/05/20 11:10:53;;;;;;;6.15;2.17;;;28.40;47.70;;;;;;4125792;28;20064;-74
2022/05/20 11:12:55;;;;;;;4.65;2.10;;;28.50;47.80;;;;;;4103261;28;20161;-74
2022/05/20 11:15:09;;;;;;;2.40;2.03;;;28.50;48.30;;;;;;4120817;28;20173;-75
2022/05/20 11:17:41;;;;;;;3.83;1.65;;;28.70;47.70;;;;;;4120117;28;20768;-76
2022/05/20 11:20:07;;;;;;;2.92;2.53;;;28.80;47.30;;;;;;4118983;28;20055;-76
2022/05/20 11:22:28;;;;;;;2.78;2.08;;;28.80;47.60;;;;;;4118245;28;20063;-76
2022/05/20 11:24:58;;;;;;;6.10;2.53;;;28.90;49.50;;;;;;4116710;28;20102;-75
2022/05/20 11:27:44;;;;;;;4.60;1.90;;;29.00;48.20;;;;;;4114002;28;20063;-75
2022/05/20 11:29:56;;;;;;;5.25;2.35;;;29.10;47.30;;;;;;4108742;28;20056;-76
2022/05/20 11:32:09;;;;;;;2.70;2.05;;;29.30;48.40;;;;;;4115975;28;20055;-76